Terminal Aerodrome Forecast
Issued by NWS Grand Forks, ND

Home | Current Version | Previous Version | Text Only | Print | Product List | Glossary On
Versions: 1 2 3 4 5 6 7 8 9 10 11 12 13 14 15
000
FTUS43 KFGF 282200 AAC
TAFGFK
TAF AMD
KGFK 282229Z 2822/0118 22015KT P6SM SCT025 BKN070
      TEMPO 2822/2823 1SM -SN BKN025
     FM010200 23010KT P6SM BKN120
     FM011200 25010KT P6SM BKN100
     FM011500 27009KT 5SM -SN BKN025=

USA.gov is the U.S. government's official web portal to all federal, state and local government web resources and services.